KISP/ISP METAR and TAF weather

Enter ICAO airport designator
Station Type Date Time Source
KISP METAR 2021/09/20 04:56 UTC NOAA

KISP 200456Z AUTO 00000KT 10SM CLR 16/15 A3025 RMK AO2 SLP242 T01610150 402440144 $


Station Type Date Time Source
KISP Decoded METAR 2021/09/20 04:56 UTC NOAA

ISLIP LONG ISLAND MAC ART, NY, United States (KISP) 40-48N 073-06W 43M
Sep 20, 2021 - 12:56 AM EDT / 2021.09.20 0456 UTC
Wind: Calm:0
Visibility: 10 mile(s):0
Sky conditions: clear
Temperature: 61.0 F (16.1 C)
Dew Point: 59.0 F (15.0 C)
Relative Humidity: 93%
Pressure (altimeter): 30.25 in. Hg (1024 hPa)
ob: KISP 200456Z AUTO 00000KT 10SM CLR 16/15 A3025 RMK AO2 SLP242 T01610150 402440144
cycle: 5

Station Type Date Time Source
KISP TAF 2021/09/20 06:40 UTC NOAA

TAF KISP 200538Z 2006/2106 00000KT P6SM SKC
FM201300 07003KT P6SM SKC
FM201500 11006KT P6SM FEW030
FM201800 13010KT P6SM FEW045
FM210000 12005KT P6SM FEW020

Example: see airport list